Time;durP1;ratioP1;P1;durP2;ratioP2;P2;SDS_P1;SDS_P2;PMS_P1;PMS_P2;Temp;Humidity;BMP_temperature;BMP_pressure;BME280_temperature;BME280_humidity;BME280_pressure;Samples;Min_cycle;Max_cycle;Signal;HPM_P1;HPM_P2
2021/12/15 00:00:13;;;;;;;20.93;10.30;;;4.50;99.90;;;;;;5127925;27;20183;-50
2021/12/15 00:02:58;;;;;;;3.47;3.17;;;4.60;99.90;;;;;;5126828;27;20234;-48
2021/12/15 00:05:45;;;;;;;2.23;2.13;;;4.70;99.90;;;;;;5127444;27;20233;-49
2021/12/15 00:08:29;;;;;;;1.77;1.67;;;4.70;99.90;;;;;;5128485;27;20188;-54
2021/12/15 00:11:15;;;;;;;1.53;1.50;;;4.70;99.90;;;;;;5126999;27;20276;-52
2021/12/15 00:14:00;;;;;;;1.93;1.83;;;4.50;99.90;;;;;;5126487;27;20234;-50
2021/12/15 00:16:46;;;;;;;1.93;1.73;;;4.50;99.90;;;;;;5127628;27;20371;-50
2021/12/15 00:19:30;;;;;;;1.50;1.40;;;4.40;99.90;;;;;;5126443;27;20238;-52
2021/12/15 00:22:15;;;;;;;3.37;2.00;;;4.50;99.90;;;;;;5127249;27;20192;-50
2021/12/15 00:24:59;;;;;;;1.83;1.73;;;4.50;99.90;;;;;;5127099;27;20219;-48
2021/12/15 00:27:44;;;;;;;1.70;1.60;;;4.50;99.90;;;;;;5126876;27;20236;-50
2021/12/15 00:30:28;;;;;;;2.67;1.90;;;4.60;99.90;;;;;;5127333;27;20199;-58
2021/12/15 00:33:13;;;;;;;1.87;1.33;;;4.60;99.90;;;;;;5126738;27;20227;-54
2021/12/15 00:35:58;;;;;;;2.17;1.80;;;4.60;99.90;;;;;;5126178;27;20199;-57
2021/12/15 00:38:43;;;;;;;1.67;1.40;;;4.60;99.90;;;;;;5127861;27;20303;-57
2021/12/15 00:41:27;;;;;;;2.03;1.77;;;4.60;99.90;;;;;;5126369;27;20336;-53
2021/12/15 00:44:13;;;;;;;1.83;1.73;;;4.50;99.90;;;;;;5126760;27;20307;-52
2021/12/15 00:46:57;;;;;;;2.73;1.73;;;4.50;99.90;;;;;;5126867;27;20217;-57
2021/12/15 00:49:43;;;;;;;1.77;1.40;;;4.60;99.90;;;;;;5125019;27;20267;-52
2021/12/15 00:52:27;;;;;;;1.87;1.77;;;4.50;99.90;;;;;;5126124;27;20231;-52
2021/12/15 00:55:16;;;;;;;1.70;1.60;;;4.50;99.90;;;;;;5125937;27;20204;-55
2021/12/15 00:58:02;;;;;;;2.07;1.87;;;4.50;99.90;;;;;;5125611;27;20307;-55
2021/12/15 01:00:49;;;;;;;1.77;1.67;;;4.50;99.90;;;;;;5118786;27;20200;-50
2021/12/15 01:03:36;;;;;;;3.80;1.37;;;4.50;99.90;;;;;;5125465;27;20223;-50
2021/12/15 01:06:21;;;;;;;0.90;0.90;;;4.40;99.90;;;;;;5125561;27;20198;-50
2021/12/15 01:09:16;;;;;;;2.97;1.73;;;4.40;99.90;;;;;;5111095;27;20208;-49
2021/12/15 01:20:59;;;;;;;2.33;2.20;;;4.60;99.90;;;;;;5121216;27;20341;-48
2021/12/15 01:23:44;;;;;;;2.93;1.73;;;4.50;99.90;;;;;;5113249;27;20245;-48
2021/12/15 01:26:28;;;;;;;3.40;1.40;;;4.40;99.90;;;;;;5118964;27;20187;-47
2021/12/15 01:29:13;;;;;;;1.97;1.87;;;4.40;99.90;;;;;;5115820;27;20199;-53
2021/12/15 01:31:58;;;;;;;1.80;1.27;;;4.40;99.90;;;;;;5111516;27;20186;-54
2021/12/15 01:34:23;;;;;;;2.40;1.77;;;4.50;99.90;;;;;;5099664;27;20190;-54
2021/12/15 01:37:08;;;;;;;3.60;1.70;;;4.40;99.90;;;;;;5132682;27;20409;-56
2021/12/15 01:39:55;;;;;;;1.90;1.80;;;4.50;99.90;;;;;;5109241;27;20255;-57
2021/12/15 01:42:39;;;;;;;2.13;1.90;;;4.50;99.90;;;;;;5158221;27;20218;-48
2021/12/15 01:48:29;;;;;;;1.90;1.60;;;4.40;99.90;;;;;;5133882;27;20199;-54
2021/12/15 01:51:13;;;;;;;2.90;1.67;;;4.50;99.90;;;;;;5126866;27;20235;-56
2021/12/15 01:53:58;;;;;;;3.03;1.97;;;4.60;99.90;;;;;;5127206;27;20196;-55
2021/12/15 01:56:43;;;;;;;2.40;2.20;;;4.50;99.90;;;;;;5134691;27;20191;-55
2021/12/15 01:59:29;;;;;;;1.67;1.27;;;4.50;99.90;;;;;;5121538;27;20229;-48
2021/12/15 02:02:16;;;;;;;2.37;1.73;;;4.50;99.90;;;;;;5116773;27;20284;-51
2021/12/15 02:05:02;;;;;;;1.90;1.80;;;4.60;99.90;;;;;;5121652;27;20265;-55
2021/12/15 02:07:48;;;;;;;3.00;1.77;;;4.50;99.90;;;;;;5116873;27;20184;-52
2021/12/15 02:10:35;;;;;;;3.97;2.00;;;4.50;99.90;;;;;;5117286;27;20203;-56
2021/12/15 02:13:20;;;;;;;2.17;1.97;;;4.50;99.90;;;;;;5122179;27;20211;-48
2021/12/15 02:16:06;;;;;;;2.27;1.63;;;4.50;99.90;;;;;;5154397;27;20211;-56
2021/12/15 02:18:50;;;;;;;3.47;1.80;;;4.50;99.90;;;;;;5108875;27;20223;-50
2021/12/15 02:21:35;;;;;;;2.63;2.47;;;4.50;99.90;;;;;;5119419;27;20203;-53
2021/12/15 02:24:20;;;;;;;3.90;1.93;;;4.50;99.90;;;;;;5121597;27;20343;-52
2021/12/15 02:27:05;;;;;;;2.73;1.77;;;4.50;99.90;;;;;;5119702;27;20266;-53
2021/12/15 02:29:58;;;;;;;2.93;1.87;;;4.50;99.90;;;;;;5118370;27;20240;-49
2021/12/15 02:33:06;;;;;;;2.73;2.03;;;4.50;99.90;;;;;;5122493;27;20191;-49
2021/12/15 02:42:21;;;;;;;2.30;1.53;;;4.60;99.90;;;;;;5123837;27;20188;-51
2021/12/15 02:45:09;;;;;;;1.93;1.80;;;4.70;99.90;;;;;;5124240;27;20199;-50
2021/12/15 02:47:54;;;;;;;2.90;2.17;;;4.60;99.90;;;;;;5124496;27;20207;-46
2021/12/15 02:50:39;;;;;;;3.20;1.77;;;4.60;99.90;;;;;;5124097;27;20214;-48
2021/12/15 02:53:23;;;;;;;1.70;1.60;;;4.60;99.90;;;;;;5124968;27;20255;-48
2021/12/15 02:56:08;;;;;;;1.63;1.37;;;4.60;99.90;;;;;;5124410;27;20183;-48
2021/12/15 02:58:58;;;;;;;1.73;1.13;;;4.60;99.90;;;;;;5124219;27;20223;-47
2021/12/15 03:07:32;;;;;;;2.93;2.50;;;4.60;99.90;;;;;;5125516;27;20204;-54
2021/12/15 03:16:27;;;;;;;3.00;1.80;;;4.50;99.90;;;;;;5124629;28;20321;-50
2021/12/15 03:19:11;;;;;;;4.20;2.20;;;4.50;99.90;;;;;;5124563;28;20280;-49
2021/12/15 03:21:56;;;;;;;2.10;1.37;;;4.60;99.90;;;;;;5124064;28;20226;-49
2021/12/15 03:24:40;;;;;;;2.47;1.77;;;4.50;99.90;;;;;;5123403;28;20195;-56
2021/12/15 03:33:15;;;;;;;3.50;1.83;;;4.50;99.90;;;;;;5124509;28;20319;-50
2021/12/15 03:33:43;;;;;;;2.23;1.47;;;4.50;99.90;;;;;;5124249;28;20191;-54
2021/12/15 03:36:41;;;;;;;2.23;1.63;;;4.60;99.90;;;;;;5124203;28;20254;-56
2021/12/15 03:39:11;;;;;;;1.47;1.23;;;4.60;99.90;;;;;;5105794;28;20243;-57
2021/12/15 03:42:04;;;;;;;2.97;2.60;;;4.60;99.90;;;;;;5123577;28;20203;-56
2021/12/15 03:44:49;;;;;;;2.00;1.83;;;4.60;99.90;;;;;;5124864;28;20199;-54
2021/12/15 03:47:38;;;;;;;2.93;2.10;;;4.70;99.90;;;;;;5123681;28;20199;-55
2021/12/15 03:50:25;;;;;;;1.97;1.77;;;4.60;99.90;;;;;;5123640;28;20187;-55
2021/12/15 03:53:10;;;;;;;2.23;2.00;;;4.60;99.90;;;;;;5123814;28;20335;-56
2021/12/15 03:55:56;;;;;;;1.40;1.30;;;4.60;99.90;;;;;;5123121;28;20218;-54
2021/12/15 03:58:41;;;;;;;1.90;1.37;;;4.50;99.90;;;;;;5123935;28;20211;-50
2021/12/15 04:01:25;;;;;;;2.37;2.13;;;4.60;99.90;;;;;;5123265;28;20235;-58
2021/12/15 04:04:10;;;;;;;2.37;2.00;;;4.60;99.90;;;;;;5123505;28;20263;-50
2021/12/15 04:06:54;;;;;;;2.20;1.40;;;4.50;99.90;;;;;;5124271;28;20237;-56
2021/12/15 04:09:40;;;;;;;2.63;2.13;;;4.40;99.90;;;;;;5123100;28;20188;-47
2021/12/15 04:12:25;;;;;;;2.37;2.03;;;4.40;99.90;;;;;;5123058;28;20209;-54
2021/12/15 04:18:24;;;;;;;1.60;1.50;;;4.40;99.90;;;;;;5118576;28;20245;-54
2021/12/15 04:21:08;;;;;;;2.97;2.23;;;4.40;99.90;;;;;;5103165;28;20196;-49
2021/12/15 04:23:55;;;;;;;3.03;2.00;;;4.40;99.90;;;;;;5105363;28;20223;-58
2021/12/15 04:26:39;;;;;;;1.60;1.47;;;4.50;99.90;;;;;;5106347;28;20199;-46
2021/12/15 04:29:27;;;;;;;3.63;2.20;;;4.50;99.90;;;;;;5106829;28;20208;-51
2021/12/15 04:32:18;;;;;;;2.37;1.80;;;4.50;99.90;;;;;;5107637;28;20192;-60
2021/12/15 04:35:03;;;;;;;2.10;1.70;;;4.60;99.90;;;;;;5107099;28;20204;-55
2021/12/15 04:37:51;;;;;;;3.00;2.13;;;4.60;99.90;;;;;;5106936;28;20231;-60
2021/12/15 04:40:36;;;;;;;1.90;1.30;;;4.70;99.90;;;;;;5106652;28;20247;-54
2021/12/15 04:43:21;;;;;;;1.30;1.03;;;4.70;99.90;;;;;;5105783;28;20180;-48
2021/12/15 04:46:07;;;;;;;3.77;2.23;;;4.70;99.90;;;;;;5106561;28;20191;-51
2021/12/15 04:48:52;;;;;;;4.30;1.97;;;4.70;99.90;;;;;;5106060;28;20187;-49
2021/12/15 04:51:37;;;;;;;2.87;1.60;;;4.70;99.90;;;;;;5105232;28;20360;-46
2021/12/15 04:54:22;;;;;;;2.80;2.50;;;4.60;99.90;;;;;;5106902;28;20192;-57
2021/12/15 04:57:06;;;;;;;2.67;1.73;;;4.70;99.90;;;;;;5105994;28;20298;-50
2021/12/15 04:59:51;;;;;;;15.80;6.60;;;4.70;99.90;;;;;;5105526;28;20304;-49
2021/12/15 05:02:37;;;;;;;1.80;1.70;;;4.70;99.90;;;;;;5106581;28;20278;-54
2021/12/15 05:05:22;;;;;;;3.30;2.07;;;4.70;99.90;;;;;;5106056;28;20577;-60
2021/12/15 05:08:07;;;;;;;2.37;1.50;;;4.70;99.90;;;;;;5105725;28;20204;-51
2021/12/15 05:10:55;;;;;;;3.03;2.53;;;4.70;99.90;;;;;;5106262;28;20192;-53
2021/12/15 05:13:39;;;;;;;3.30;2.00;;;4.70;99.90;;;;;;5105400;28;20208;-46
2021/12/15 05:16:24;;;;;;;21.33;11.77;;;4.70;99.90;;;;;;5105695;28;20204;-46
2021/12/15 05:19:08;;;;;;;4.97;2.90;;;4.70;99.90;;;;;;5104679;28;20216;-50
2021/12/15 05:21:57;;;;;;;2.20;1.33;;;4.70;99.90;;;;;;5104787;28;20183;-54
2021/12/15 05:24:43;;;;;;;2.87;1.90;;;4.70;99.90;;;;;;5106463;28;20208;-49
2021/12/15 05:27:28;;;;;;;2.23;1.83;;;4.80;99.90;;;;;;5105665;28;20208;-49
2021/12/15 05:30:15;;;;;;;1.33;1.33;;;4.80;99.90;;;;;;5105064;28;20224;-47
2021/12/15 05:33:00;;;;;;;1.77;1.67;;;4.80;99.90;;;;;;5106557;28;20222;-50
2021/12/15 05:35:45;;;;;;;1.97;1.33;;;4.90;99.90;;;;;;5104899;28;20238;-51
2021/12/15 05:38:29;;;;;;;2.80;2.50;;;4.90;99.90;;;;;;5104683;28;20219;-47
2021/12/15 05:41:15;;;;;;;2.70;2.03;;;4.90;99.90;;;;;;5105230;28;20224;-46
2021/12/15 05:43:59;;;;;;;2.00;1.90;;;4.90;99.90;;;;;;5104037;28;20277;-52
2021/12/15 05:46:44;;;;;;;5.27;2.00;;;4.90;99.90;;;;;;5105676;28;20192;-46
2021/12/15 05:49:29;;;;;;;1.47;1.37;;;4.90;99.90;;;;;;5104573;28;20212;-51
2021/12/15 05:52:14;;;;;;;2.97;2.23;;;4.90;99.90;;;;;;5103780;28;20220;-59
2021/12/15 05:55:00;;;;;;;1.93;1.83;;;4.90;99.90;;;;;;5105698;28;20234;-49
2021/12/15 05:57:45;;;;;;;1.93;1.83;;;4.90;99.90;;;;;;5105043;28;20249;-50
2021/12/15 06:00:33;;;;;;;5.87;2.70;;;4.90;99.90;;;;;;5104693;28;20189;-57
2021/12/15 06:03:18;;;;;;;3.90;2.63;;;4.90;99.90;;;;;;5105520;28;20322;-55
2021/12/15 06:06:02;;;;;;;2.90;2.50;;;4.90;99.90;;;;;;5104373;28;20333;-57
2021/12/15 06:08:47;;;;;;;2.53;2.07;;;4.90;99.90;;;;;;5104824;28;20261;-57
2021/12/15 06:11:31;;;;;;;9.00;3.43;;;4.90;99.90;;;;;;5104686;28;20187;-55
2021/12/15 06:14:23;;;;;;;4.20;1.80;;;4.80;99.90;;;;;;5104400;28;20192;-54
2021/12/15 06:17:09;;;;;;;2.50;2.23;;;4.90;99.90;;;;;;5104452;28;20230;-53
2021/12/15 06:19:54;;;;;;;3.17;2.07;;;4.80;99.90;;;;;;5103929;28;20333;-58
2021/12/15 06:22:41;;;;;;;6.03;3.00;;;4.80;99.90;;;;;;5103776;28;20204;-56
2021/12/15 06:25:25;;;;;;;1.90;1.57;;;4.80;99.90;;;;;;5104768;28;20184;-52
2021/12/15 06:28:10;;;;;;;1.60;1.47;;;4.80;99.90;;;;;;5103787;28;20196;-57
2021/12/15 06:30:56;;;;;;;3.37;2.83;;;4.80;99.90;;;;;;5103782;28;20238;-52
2021/12/15 06:33:42;;;;;;;2.73;2.37;;;4.80;99.90;;;;;;5105450;28;20192;-56
2021/12/15 06:36:28;;;;;;;5.23;2.40;;;4.80;99.90;;;;;;5104101;28;20196;-53
2021/12/15 06:39:12;;;;;;;3.60;2.73;;;4.80;99.90;;;;;;5103437;28;20286;-51
2021/12/15 06:41:56;;;;;;;7.77;3.30;;;4.80;99.90;;;;;;5104087;28;20192;-55
2021/12/15 06:44:41;;;;;;;2.80;2.60;;;4.80;99.90;;;;;;5103406;28;20234;-55
2021/12/15 06:59:38;;;;;;;5.30;3.20;;;4.80;99.90;;;;;;5105623;28;20328;-50
2021/12/15 07:02:23;;;;;;;6.77;3.03;;;4.80;99.90;;;;;;5103201;28;20200;-49
2021/12/15 07:05:08;;;;;;;3.10;2.63;;;4.80;99.90;;;;;;5103364;28;20196;-51
2021/12/15 07:07:55;;;;;;;4.03;2.67;;;4.80;99.90;;;;;;5103780;28;20196;-47
2021/12/15 07:10:53;;;;;;;3.47;2.80;;;4.80;99.90;;;;;;5103348;28;20230;-47
2021/12/15 07:13:37;;;;;;;4.57;3.07;;;4.80;99.90;;;;;;5116224;28;20191;-54
2021/12/15 07:16:23;;;;;;;2.53;2.03;;;4.80;99.90;;;;;;5120653;28;20184;-47
2021/12/15 07:19:31;;;;;;;5.60;2.33;;;4.80;99.90;;;;;;5122892;28;20226;-49
2021/12/15 07:22:30;;;;;;;6.27;2.73;;;4.90;99.90;;;;;;5122407;28;20223;-55
2021/12/15 07:25:14;;;;;;;4.87;4.13;;;4.80;99.90;;;;;;5122383;28;20199;-56
2021/12/15 07:27:59;;;;;;;5.30;4.43;;;4.90;99.90;;;;;;5115744;28;20387;-60
2021/12/15 07:30:44;;;;;;;6.30;3.47;;;4.90;99.90;;;;;;5110277;27;20188;-53
2021/12/15 07:33:29;;;;;;;3.67;2.17;;;4.90;99.90;;;;;;5101339;27;20195;-54
2021/12/15 07:36:15;;;;;;;3.83;3.43;;;4.90;99.90;;;;;;5108001;27;20192;-52
2021/12/15 07:39:00;;;;;;;12.73;8.30;;;4.90;99.90;;;;;;5108634;27;20259;-53
2021/12/15 07:41:53;;;;;;;6.47;4.27;;;4.90;99.90;;;;;;5115622;27;20207;-48
2021/12/15 07:44:40;;;;;;;5.70;3.73;;;4.90;99.90;;;;;;5121915;27;20203;-46
2021/12/15 07:47:25;;;;;;;5.90;3.40;;;4.90;99.90;;;;;;5116076;27;20378;-56
2021/12/15 07:50:10;;;;;;;4.30;2.50;;;4.90;99.90;;;;;;5117682;27;20222;-50
2021/12/15 07:52:54;;;;;;;6.27;2.70;;;4.90;99.90;;;;;;5121473;27;20347;-54
2021/12/15 07:55:39;;;;;;;5.87;3.00;;;4.90;99.90;;;;;;5119574;27;20272;-53
2021/12/15 07:58:24;;;;;;;3.40;2.97;;;4.90;99.90;;;;;;5122710;27;20227;-51
2021/12/15 08:01:11;;;;;;;2.97;2.57;;;4.90;99.90;;;;;;5111217;27;20215;-51
2021/12/15 08:03:56;;;;;;;8.40;3.73;;;5.00;99.90;;;;;;5111741;27;20342;-56
2021/12/15 08:06:40;;;;;;;6.57;3.07;;;5.00;99.90;;;;;;5114657;27;20206;-59
2021/12/15 08:09:25;;;;;;;4.07;2.77;;;5.10;99.90;;;;;;5125789;27;20226;-53
2021/12/15 08:12:09;;;;;;;7.07;4.20;;;5.10;99.90;;;;;;5132928;27;20206;-57
2021/12/15 08:14:54;;;;;;;7.77;2.80;;;5.10;99.90;;;;;;5128764;27;20208;-52
2021/12/15 08:17:41;;;;;;;5.10;3.43;;;5.10;99.90;;;;;;5121648;27;20199;-46
2021/12/15 08:20:28;;;;;;;9.63;5.07;;;5.10;99.90;;;;;;5125958;27;20267;-57
2021/12/15 08:23:13;;;;;;;8.33;5.90;;;5.10;99.90;;;;;;5123423;27;20303;-49
2021/12/15 08:25:58;;;;;;;6.43;3.50;;;5.10;99.90;;;;;;5115291;27;20219;-56
2021/12/15 08:28:43;;;;;;;7.47;3.10;;;5.10;99.90;;;;;;5119253;27;20216;-58
2021/12/15 08:31:27;;;;;;;8.80;3.53;;;5.10;99.90;;;;;;5134317;27;20264;-52
2021/12/15 08:34:12;;;;;;;5.80;2.70;;;5.10;99.90;;;;;;5123258;27;20271;-52
2021/12/15 08:36:56;;;;;;;4.10;2.43;;;5.20;99.90;;;;;;5163733;27;20245;-53
2021/12/15 08:39:43;;;;;;;7.07;4.00;;;5.20;99.90;;;;;;5131632;27;20223;-52
2021/12/15 08:42:29;;;;;;;7.57;2.70;;;5.10;99.90;;;;;;5124247;27;20288;-53
2021/12/15 08:45:15;;;;;;;5.90;3.17;;;5.10;99.90;;;;;;5117158;27;20337;-48
2021/12/15 08:47:59;;;;;;;5.57;3.63;;;5.10;99.90;;;;;;5132203;27;20194;-59
2021/12/15 08:50:45;;;;;;;5.67;2.80;;;5.10;99.90;;;;;;5128573;27;20235;-49
2021/12/15 08:53:29;;;;;;;7.80;3.80;;;5.20;99.90;;;;;;5119966;27;20221;-52
2021/12/15 08:56:14;;;;;;;5.20;2.80;;;5.40;99.90;;;;;;5129719;27;20277;-49
2021/12/15 08:58:59;;;;;;;6.60;3.30;;;5.50;99.90;;;;;;5126034;27;20212;-54
2021/12/15 09:01:46;;;;;;;5.30;3.07;;;5.40;99.90;;;;;;5115853;27;20204;-53
2021/12/15 09:04:30;;;;;;;6.37;3.37;;;5.40;99.90;;;;;;5129897;27;20191;-50
2021/12/15 09:07:15;;;;;;;6.43;3.77;;;5.40;99.90;;;;;;5145200;27;20199;-46
2021/12/15 09:09:59;;;;;;;6.97;3.33;;;5.40;99.90;;;;;;5108026;27;20184;-48
2021/12/15 09:12:44;;;;;;;8.10;4.47;;;5.40;99.90;;;;;;5115389;27;20194;-53
2021/12/15 09:15:29;;;;;;;5.83;3.83;;;5.40;99.90;;;;;;5158526;27;20305;-56
2021/12/15 09:18:14;;;;;;;4.20;3.40;;;5.50;99.90;;;;;;5113009;27;20216;-54
2021/12/15 09:21:00;;;;;;;6.27;3.10;;;5.40;99.90;;;;;;5118026;27;20191;-53
2021/12/15 09:23:45;;;;;;;5.03;3.83;;;5.50;99.90;;;;;;5114505;27;20187;-48
2021/12/15 09:26:30;;;;;;;5.93;2.93;;;5.50;99.90;;;;;;5121254;27;20272;-48
2021/12/15 09:29:15;;;;;;;4.03;3.17;;;5.60;99.90;;;;;;5114584;27;20199;-55
2021/12/15 09:31:59;;;;;;;6.47;3.43;;;5.50;99.90;;;;;;5111861;27;20245;-48
2021/12/15 09:34:43;;;;;;;7.77;4.23;;;5.50;99.90;;;;;;5119162;27;20248;-50
2021/12/15 09:37:28;;;;;;;9.47;4.33;;;5.50;99.90;;;;;;5112401;27;20187;-59
2021/12/15 09:40:15;;;;;;;6.30;4.37;;;5.50;99.90;;;;;;5116266;27;20233;-57
2021/12/15 09:43:01;;;;;;;7.07;3.33;;;5.50;99.90;;;;;;5104795;27;20199;-53
2021/12/15 09:45:55;;;;;;;6.40;4.03;;;5.60;99.90;;;;;;5108878;27;20195;-54
2021/12/15 10:04:05;;;;;;;7.43;4.53;;;5.60;99.90;;;;;;5125835;27;20203;-49
2021/12/15 10:18:50;;;;;;;4.90;2.60;;;5.60;99.90;;;;;;5110967;27;20375;-58
2021/12/15 10:21:35;;;;;;;9.43;5.20;;;5.50;99.90;;;;;;5102275;28;20204;-54
2021/12/15 10:24:34;;;;;;;6.13;3.13;;;5.50;99.90;;;;;;5103148;28;20325;-52
2021/12/15 10:27:48;;;;;;;8.33;3.90;;;5.50;99.90;;;;;;5103464;28;20207;-53
2021/12/15 10:30:40;;;;;;;7.67;3.53;;;5.60;99.90;;;;;;5103105;28;20189;-48
2021/12/15 10:33:27;;;;;;;6.10;3.27;;;5.60;99.90;;;;;;5103204;28;20204;-49
2021/12/15 10:36:15;;;;;;;8.17;4.53;;;5.70;99.90;;;;;;5104289;28;20220;-56
2021/12/15 10:39:02;;;;;;;9.27;5.00;;;5.70;99.90;;;;;;5102826;28;20223;-58
2021/12/15 10:41:51;;;;;;;6.93;3.73;;;5.70;99.90;;;;;;5103244;28;20200;-54
2021/12/15 10:44:35;;;;;;;6.67;4.30;;;5.70;99.90;;;;;;5102693;27;20192;-51
2021/12/15 10:47:23;;;;;;;5.40;4.70;;;5.70;99.90;;;;;;5101293;28;20633;-59
2021/12/15 10:50:14;;;;;;;8.13;5.20;;;5.60;99.90;;;;;;5102670;28;20196;-50
2021/12/15 10:53:00;;;;;;;8.67;5.33;;;5.70;99.90;;;;;;5102403;28;20224;-53
2021/12/15 10:55:50;;;;;;;10.67;4.87;;;5.80;99.90;;;;;;5103201;28;20306;-54
2021/12/15 10:58:41;;;;;;;10.17;3.90;;;5.80;99.90;;;;;;5103309;28;20239;-51
2021/12/15 11:01:48;;;;;;;6.63;4.70;;;5.70;99.90;;;;;;5119455;27;20195;-54
2021/12/15 11:04:41;;;;;;;7.97;3.70;;;5.70;99.90;;;;;;5123575;27;20199;-48
2021/12/15 11:07:43;;;;;;;7.80;4.07;;;5.80;99.90;;;;;;5123462;27;20199;-53
2021/12/15 11:10:31;;;;;;;4.87;4.07;;;5.80;99.90;;;;;;5122875;27;20252;-50
2021/12/15 11:13:15;;;;;;;5.20;3.27;;;5.80;99.90;;;;;;5114002;27;20280;-53
2021/12/15 11:16:04;;;;;;;6.50;4.50;;;5.80;99.90;;;;;;5115453;27;20246;-56
2021/12/15 11:18:49;;;;;;;9.47;4.57;;;5.80;99.90;;;;;;5119760;28;20340;-47
2021/12/15 11:21:34;;;;;;;7.73;4.47;;;5.80;99.90;;;;;;5115731;27;20317;-56
2021/12/15 11:24:22;;;;;;;6.80;3.73;;;5.70;99.90;;;;;;5120715;27;20255;-51
2021/12/15 11:27:17;;;;;;;7.70;4.40;;;5.80;99.90;;;;;;5102341;27;20187;-49
2021/12/15 11:30:04;;;;;;;5.57;4.43;;;5.90;99.90;;;;;;5108176;27;20196;-50
2021/12/15 11:32:51;;;;;;;7.93;4.43;;;5.90;99.90;;;;;;5125092;27;20253;-50
2021/12/15 11:35:45;;;;;;;6.53;4.47;;;6.00;99.90;;;;;;5118829;27;20199;-44
2021/12/15 11:38:38;;;;;;;5.60;3.53;;;5.90;99.90;;;;;;5108477;27;20265;-47
2021/12/15 11:41:22;;;;;;;4.97;3.67;;;5.90;99.90;;;;;;5108634;27;20202;-44
2021/12/15 11:44:12;;;;;;;4.63;3.17;;;6.00;99.90;;;;;;5122551;27;20368;-52
2021/12/15 11:47:04;;;;;;;4.13;3.07;;;6.00;99.90;;;;;;5106184;28;20192;-45
2021/12/15 11:49:49;;;;;;;7.20;3.77;;;6.00;99.90;;;;;;5125278;27;20274;-53
2021/12/15 11:52:43;;;;;;;6.13;3.63;;;5.90;99.90;;;;;;5126532;27;20231;-48
2021/12/15 11:55:33;;;;;;;5.00;3.30;;;5.90;99.90;;;;;;5126247;27;20202;-52
2021/12/15 11:58:30;;;;;;;11.50;5.90;;;5.70;99.90;;;;;;5141396;27;20214;-55
2021/12/15 12:01:38;;;;;;;13.47;7.27;;;5.80;99.90;;;;;;5147582;27;20195;-48
2021/12/15 12:04:33;;;;;;;5.87;3.23;;;5.90;99.90;;;;;;5129204;27;20285;-47
2021/12/15 12:07:28;;;;;;;7.53;4.03;;;5.90;99.90;;;;;;5126268;27;20207;-49
2021/12/15 12:10:24;;;;;;;6.00;4.03;;;6.00;99.90;;;;;;5125801;27;20235;-46
2021/12/15 12:12:58;;;;;;;6.30;4.33;;;6.00;99.90;;;;;;5108602;27;20199;-48
2021/12/15 12:15:46;;;;;;;6.87;3.43;;;5.80;99.90;;;;;;5127010;27;20282;-55
2021/12/15 12:18:22;;;;;;;4.70;4.20;;;5.90;99.90;;;;;;5108457;27;20193;-54
2021/12/15 12:21:08;;;;;;;7.07;3.93;;;5.90;99.90;;;;;;5107657;27;20207;-48
2021/12/15 12:23:53;;;;;;;7.20;5.37;;;5.90;99.90;;;;;;5105163;28;20200;-51
2021/12/15 12:26:38;;;;;;;6.17;4.20;;;5.90;99.90;;;;;;5106010;28;20219;-46
2021/12/15 12:29:22;;;;;;;5.03;3.90;;;5.90;99.90;;;;;;5106312;28;20249;-51
2021/12/15 12:32:07;;;;;;;3.93;3.53;;;5.90;99.90;;;;;;5119157;27;20279;-51
2021/12/15 12:34:33;;;;;;;6.03;3.70;;;6.00;99.90;;;;;;5129733;27;20260;-54
2021/12/15 12:37:18;;;;;;;6.30;3.80;;;6.00;99.90;;;;;;5134686;27;20196;-58
2021/12/15 12:40:17;;;;;;;5.63;3.50;;;6.00;99.90;;;;;;5129679;27;20218;-54
2021/12/15 12:43:21;;;;;;;5.33;2.90;;;6.10;99.90;;;;;;5133726;27;20198;-53
2021/12/15 12:46:57;;;;;;;10.63;6.20;;;6.10;99.90;;;;;;5135256;27;20281;-51
2021/12/15 13:01:32;;;;;;;6.50;4.00;;;6.00;99.90;;;;;;5133616;27;20245;-51
2021/12/15 13:04:17;;;;;;;5.03;3.17;;;6.00;99.90;;;;;;5134589;27;20195;-51
2021/12/15 13:07:02;;;;;;;6.83;4.20;;;6.00;99.90;;;;;;5131408;27;20223;-48
2021/12/15 13:09:51;;;;;;;6.00;4.20;;;6.10;99.90;;;;;;5126269;27;20192;-45
2021/12/15 13:12:39;;;;;;;5.70;3.77;;;6.10;99.90;;;;;;5121607;27;20400;-53
2021/12/15 13:15:34;;;;;;;7.80;4.97;;;6.00;99.90;;;;;;5121920;27;20183;-56
2021/12/15 13:18:19;;;;;;;8.53;4.87;;;6.00;99.90;;;;;;5125061;27;20239;-56
2021/12/15 13:21:06;;;;;;;7.93;4.43;;;5.90;99.90;;;;;;5122766;27;20219;-49
2021/12/15 13:23:56;;;;;;;7.47;5.00;;;5.90;99.90;;;;;;5133720;27;20236;-58
2021/12/15 13:29:53;;;;;;;8.57;4.73;;;6.00;99.90;;;;;;5134901;27;20245;-50
2021/12/15 13:32:46;;;;;;;6.77;4.13;;;6.10;99.90;;;;;;5133388;27;20215;-55
2021/12/15 13:35:38;;;;;;;7.33;3.97;;;6.10;99.90;;;;;;5131761;27;20191;-58
2021/12/15 13:38:37;;;;;;;7.07;4.30;;;6.00;99.90;;;;;;5129629;27;20299;-51
2021/12/15 13:41:47;;;;;;;5.77;3.90;;;5.90;99.90;;;;;;5131381;27;20199;-55
2021/12/15 13:44:44;;;;;;;7.57;4.70;;;6.00;99.90;;;;;;5134703;27;20358;-49
2021/12/15 13:47:29;;;;;;;8.57;5.20;;;6.00;99.90;;;;;;5138153;27;20184;-53
2021/12/15 13:50:21;;;;;;;5.70;4.20;;;6.00;99.90;;;;;;5123078;27;20200;-55
2021/12/15 13:53:05;;;;;;;7.80;4.73;;;6.00;99.90;;;;;;5122596;27;20770;-58
2021/12/15 13:55:50;;;;;;;8.60;3.87;;;6.00;99.90;;;;;;5120680;27;20237;-51
2021/12/15 13:58:35;;;;;;;5.23;4.43;;;5.90;99.90;;;;;;5123490;27;20227;-46
2021/12/15 14:01:19;;;;;;;7.40;5.20;;;5.90;99.90;;;;;;5121841;27;20184;-47
2021/12/15 14:04:05;;;;;;;6.23;4.50;;;5.90;99.90;;;;;;5123573;27;20215;-50
2021/12/15 14:06:50;;;;;;;8.23;4.97;;;5.90;99.90;;;;;;5123410;27;20184;-46
2021/12/15 14:09:34;;;;;;;5.67;4.23;;;5.90;99.90;;;;;;5123614;27;20245;-49
2021/12/15 14:12:44;;;;;;;4.33;3.70;;;5.80;99.90;;;;;;5121128;27;20223;-48
2021/12/15 14:15:43;;;;;;;7.37;4.10;;;5.70;99.90;;;;;;5122734;27;20187;-59
2021/12/15 14:18:31;;;;;;;9.03;5.07;;;5.70;99.90;;;;;;5123391;27;20249;-50
2021/12/15 14:21:18;;;;;;;15.20;6.50;;;5.70;99.90;;;;;;5124423;27;20216;-59
2021/12/15 14:24:02;;;;;;;11.77;5.80;;;5.70;99.90;;;;;;5124589;27;20194;-57
2021/12/15 14:26:48;;;;;;;8.17;4.70;;;5.70;99.90;;;;;;5124285;27;20681;-46
2021/12/15 14:29:33;;;;;;;6.07;4.40;;;5.70;99.90;;;;;;5125178;27;20195;-58
2021/12/15 14:32:17;;;;;;;8.43;4.90;;;5.70;99.90;;;;;;5124522;27;20204;-54
2021/12/15 14:35:02;;;;;;;13.40;5.93;;;5.70;99.90;;;;;;5123807;27;20199;-47
2021/12/15 14:37:46;;;;;;;11.57;5.07;;;5.60;99.90;;;;;;5124057;27;20231;-51
2021/12/15 14:40:31;;;;;;;10.17;5.40;;;5.50;99.90;;;;;;5122683;27;20198;-51
2021/12/15 14:43:16;;;;;;;8.17;4.03;;;5.50;99.90;;;;;;5124914;27;20222;-53
2021/12/15 14:46:02;;;;;;;11.33;5.20;;;5.60;99.90;;;;;;5124073;27;20196;-48
2021/12/15 14:49:00;;;;;;;9.30;5.33;;;5.50;99.90;;;;;;5124165;27;20261;-50
2021/12/15 14:51:51;;;;;;;8.17;5.50;;;5.50;99.90;;;;;;5124779;27;20266;-48
2021/12/15 14:54:36;;;;;;;7.23;5.10;;;5.50;99.90;;;;;;5124151;27;20214;-55
2021/12/15 14:57:24;;;;;;;9.17;4.70;;;5.50;99.90;;;;;;5123766;27;20400;-50
2021/12/15 15:00:11;;;;;;;7.50;4.00;;;5.50;99.90;;;;;;5124321;27;20216;-52
2021/12/15 15:03:03;;;;;;;7.23;4.60;;;5.50;99.90;;;;;;5123784;27;20183;-52
2021/12/15 15:05:50;;;;;;;10.03;5.53;;;5.50;99.90;;;;;;5123681;27;20195;-50
2021/12/15 15:08:37;;;;;;;13.10;4.23;;;5.50;99.90;;;;;;5123424;27;20195;-53
2021/12/15 15:11:24;;;;;;;10.10;4.50;;;5.40;99.90;;;;;;5123534;27;20711;-48
2021/12/15 15:14:08;;;;;;;5.20;4.17;;;5.50;99.90;;;;;;5124264;27;20288;-47
2021/12/15 15:16:52;;;;;;;7.03;4.03;;;5.40;99.90;;;;;;5123814;28;20248;-51
2021/12/15 15:19:51;;;;;;;8.67;4.57;;;5.40;99.90;;;;;;5123730;28;20284;-49
2021/12/15 15:22:36;;;;;;;11.47;4.80;;;5.50;99.90;;;;;;5124256;28;20202;-46
2021/12/15 15:25:24;;;;;;;8.23;5.30;;;5.50;99.90;;;;;;5123501;28;20261;-57
2021/12/15 15:28:12;;;;;;;7.37;4.77;;;5.50;99.90;;;;;;5123390;28;20288;-50
2021/12/15 15:31:04;;;;;;;7.57;4.90;;;5.50;99.90;;;;;;5125229;28;20184;-52
2021/12/15 15:33:48;;;;;;;13.40;7.30;;;5.50;99.90;;;;;;5123145;28;20195;-52
2021/12/15 15:36:33;;;;;;;22.87;11.10;;;5.50;99.90;;;;;;5123268;28;20264;-47
2021/12/15 15:39:17;;;;;;;9.93;5.50;;;5.50;99.90;;;;;;5124595;28;20263;-47
2021/12/15 15:42:02;;;;;;;7.13;3.67;;;5.40;99.90;;;;;;5123596;28;20196;-51
2021/12/15 15:44:47;;;;;;;13.73;6.53;;;5.40;99.90;;;;;;5122938;28;20229;-52
2021/12/15 15:47:31;;;;;;;8.33;4.20;;;5.40;99.90;;;;;;5123992;28;20241;-51
2021/12/15 15:50:17;;;;;;;10.17;4.77;;;5.40;99.90;;;;;;5123396;28;20198;-54
2021/12/15 15:53:04;;;;;;;10.40;4.20;;;5.40;99.90;;;;;;5123446;28;20219;-53
2021/12/15 15:55:56;;;;;;;6.00;4.60;;;5.40;99.90;;;;;;5123641;28;20245;-54
2021/12/15 15:58:43;;;;;;;8.83;5.17;;;5.40;99.90;;;;;;5123708;28;20286;-51
2021/12/15 16:01:29;;;;;;;9.77;4.63;;;5.40;99.90;;;;;;5123289;28;20215;-49
2021/12/15 16:04:15;;;;;;;13.80;5.17;;;5.40;99.90;;;;;;5122473;28;20196;-50
2021/12/15 16:07:01;;;;;;;8.33;4.50;;;5.40;99.90;;;;;;5123193;28;20196;-45
2021/12/15 16:09:48;;;;;;;9.47;5.13;;;5.40;99.90;;;;;;5123453;28;20192;-51